Ευχαριστούμε που συμβάλλετε στη διατήρηση της σελίδας μας.

Thank you for your donations, it really helps to maintain the page.


Στατιστικά Καιρού & Άλλα..









Δείκτης Πυρκαγιάς (FWI)

Καστελόκαμπος Ρίον more information Kastelokampos Rion


Κάμερα Ρομανού more information Romanos Cam


Ραντάρ Κεραυνών more information blitzortung!


Ραντάρ Βροχής more information rain snow radar


Επισκεφθείτε άλλες ιστοσελίδες καιρού μας:

Meteopatras.Eu in
Euweather NetworkMeteopatras.Eu in Euweather Network

Weather CloudWeather Cloud

PWS WeatherPWS Weather

Awekas NetWeather data from station Patra-Ketx

WunderGroundWeather data from station Patra-Ketx




Ιδιοκτησία και Επίβλεψη : Μουλάς Αντρέας

 Πάτρα, Ελλάδα - Γ.Πλάτος : 38°14'21" Β - Γ.Μήκος : 21°45'5" Α - Υψόμετρο : 56μ

Κοντινές Αναφορές METAR

Warning: A non-numeric value encountered in /storage/content/70/1007070/meteopatras.eu/public_html/weather/metar/metarDisplay.php on line 166 Warning: A non-numeric value encountered in /storage/content/70/1007070/meteopatras.eu/public_html/weather/metar/metarDisplay.php on line 166 Warning: A non-numeric value encountered in /storage/content/70/1007070/meteopatras.eu/public_html/weather/metar/metarDisplay.php on line 166
   
LGRX - Araxos
Ενημερώθηκε: 17-06-2021 21:50
Κυρίως Αίθριος  
Κυρίως Αίθριος  
   Άνεμος: Άπνοια
Άνεμος: Άπνοια
Θερμοκρασία: 22°C
Σημείο Δρόσου: 17°C
Υγρασία: 73%
Βαρόμετρο: 1018 hPa
Σύννεφα: Κυρίως Αίθριος
Ορατότητα: More than 10 km
Λεπτομέρειες Σύννεφου: Κυρίως Αίθριος 2500 ft
LGRX 171850Z 00000KT 9999 FEW025 22/17 Q1018
LGAD - Andravida
Ενημερώθηκε: 17-06-2021 22:20
Μερικώς Νεφελώδης  
Μερικώς Νεφελώδης  
   Άνεμος: Άπνοια
Άνεμος: Άπνοια
Θερμοκρασία: 20°C
Σημείο Δρόσου: 17°C
Υγρασία: 83%
Βαρόμετρο: 1018 hPa
Σύννεφα: Μερικώς Νεφελώδης
Ορατότητα: More than 10 km
Λεπτομέρειες Σύννεφου: Κυρίως Αίθριος 2500 ft,
Μερικώς Νεφελώδης 8000 ft
LGAD 171920Z 00000KT 9999 FEW025 SCT080 20/17 Q1018
LGZA - Zakinthos
Ενημερώθηκε: 17-06-2021 21:50
Αίθριος  
Αίθριος  
   Άνεμος: Άπνοια
Άνεμος: Άπνοια
Θερμοκρασία: 21°C
Σημείο Δρόσου: 16°C
Υγρασία: 73%
Βαρόμετρο: 1018 hPa
Ορατότητα: More than 10 km
Λεπτομέρειες Σύννεφου: Αίθριος
LGZA 171850Z 00000KT CAVOK 21/16 Q1018
LGKF - Kefallinia
Ενημερώθηκε: 17-06-2021 21:50
Αίθριος  
Αίθριος  
   Άνεμος: Άπνοια
Άνεμος: Άπνοια
Θερμοκρασία: 20°C
Σημείο Δρόσου: 19°C
Υγρασία: 94%
Βαρόμετρο: 1018 hPa
Ορατότητα: More than 10 km
Λεπτομέρειες Σύννεφου: Αίθριος
LGKF 171850Z 00000KT CAVOK 20/19 Q1018
LGPZ - Preveza
Ενημερώθηκε: 17-06-2021 21:50
Κυρίως Αίθριος  
Κυρίως Αίθριος  
   Άνεμος: Δύση 7.4 km/h
Άνεμος: Δύση 7.4 km/h
Θερμοκρασία: 21°C
Σημείο Δρόσου: 18°C
Υγρασία: 83%
Βαρόμετρο: 1017 hPa
Σύννεφα: Κυρίως Αίθριος
Ορατότητα: More than 10 km
Λεπτομέρειες Σύννεφου: Κυρίως Αίθριος 2000 ft
LGPZ 171850Z 27004KT 9999 FEW020 21/18 Q1017
LGKL - Kalamata
Ενημερώθηκε: 17-06-2021 22:20
  
  
   Άνεμος: Άπνοια
Άνεμος: Άπνοια
Θερμοκρασία: 18°C
Σημείο Δρόσου: 15°C
Υγρασία: 83%
Βαρόμετρο: 1018 hPa
LGKL 171920Z AUTO 00000KT //// // ////// 18/15 Q1018 RE//
LGKR - Kerkyra
Ενημερώθηκε: 17-06-2021 22:20
Αίθριος  
Αίθριος  
   Άνεμος: Δύση 3.7 km/h
Άνεμος: Δύση 3.7 km/h
Θερμοκρασία: 22°C
Σημείο Δρόσου: 17°C
Υγρασία: 73%
Βαρόμετρο: 1017 hPa
Ορατότητα: More than 10 km
Λεπτομέρειες Σύννεφου: Αίθριος
LGKR 171920Z 28002KT CAVOK 22/17 Q1017 NOSIG
LGIO - Iwannina
Ενημερώθηκε: 17-06-2021 20:50
ΜΗ τρέχουσες
Μερικώς Νεφελώδης  
Μερικώς Νεφελώδης  
   Άνεμος: ΝΝΔ 1.9 km/h
Άνεμος: ΝΝΔ 1.9 km/h
Θερμοκρασία: 17°C
Σημείο Δρόσου: 15°C
Υγρασία: 88%
Βαρόμετρο: 1020 hPa
Σύννεφα: Μερικώς Νεφελώδης
Ορατότητα: More than 10 km
Λεπτομέρειες Σύννεφου: Κυρίως Αίθριος 3000 ft,
Μερικώς Νεφελώδης 8000 ft
LGIO 171750Z 20001KT 9999 FEW030 SCT080 17/15 Q1020
LGPZ - Leykada
Ενημερώθηκε: 17-06-2021 21:50
Κυρίως Αίθριος  
Κυρίως Αίθριος  
   Άνεμος: Δύση 7.4 km/h
Άνεμος: Δύση 7.4 km/h
Θερμοκρασία: 21°C
Σημείο Δρόσου: 18°C
Υγρασία: 83%
Βαρόμετρο: 1017 hPa
Σύννεφα: Κυρίως Αίθριος
Ορατότητα: More than 10 km
Λεπτομέρειες Σύννεφου: Κυρίως Αίθριος 2000 ft
LGPZ 171850Z 27004KT 9999 FEW020 21/18 Q1017
LGEL - Elefsina
Ενημερώθηκε: 17-06-2021 22:20
Κυρίως Αίθριος  
Κυρίως Αίθριος  
   Άνεμος: ΒΒΔ 7.4 km/h
Άνεμος: ΒΒΔ 7.4 km/h
Θερμοκρασία: 24°C
Σημείο Δρόσου: 14°C
Υγρασία: 54%
Βαρόμετρο: 1017 hPa
Σύννεφα: Κυρίως Αίθριος
Ορατότητα: More than 10 km
Λεπτομέρειες Σύννεφου: Κυρίως Αίθριος 3000 ft
LGEL 171920Z 33004KT 9999 FEW030 24/14 Q1017
LGKC - Kythira
Ενημερώθηκε: 17-06-2021 18:20
ΜΗ τρέχουσες
Κυρίως Αίθριος  
Κυρίως Αίθριος  
   Άνεμος: ΔΝΔ 18.5 km/h
Άνεμος: ΔΝΔ 18.5 km/h
Θερμοκρασία: 23°C
Σημείο Δρόσου: 15°C
Υγρασία: 61%
Βαρόμετρο: 1019 hPa
Σύννεφα: Κυρίως Αίθριος
Ορατότητα: More than 10 km
Λεπτομέρειες Σύννεφου: Κυρίως Αίθριος 2500 ft
LGKC 171520Z 25010KT 9999 FEW025 23/15 Q1019
LGIR - Hraklio
Ενημερώθηκε: 17-06-2021 22:20
Κυρίως Αίθριος  
Κυρίως Αίθριος  
   Άνεμος: ΒΒΔ 11.1 km/h
Άνεμος: ΒΒΔ 11.1 km/h
Θερμοκρασία: 22°C
Σημείο Δρόσου: 18°C
Υγρασία: 78%
Βαρόμετρο: 1017 hPa
Σύννεφα: Κυρίως Αίθριος
Ορατότητα: More than 10 km
Λεπτομέρειες Σύννεφου: Κυρίως Αίθριος 3000 ft
LGIR 171920Z 34006KT 9999 FEW030 22/18 Q1017 NOSIG

Script developed by  Saratoga-weather.org Προσαρμοσμένος για το πρότυπο του  Weerstation Leuven

Μπορείτε να βρείτε πληροφορίες καιρού μας και σε:

European Weather Network

WeatherCloud

Weather Underground

Δύκτιο Σταθμών Ελλάδας

AWEKAS

HAMweather, WeatherForYou, PWS Weather

MeteoPatras.Eu